CEB456 RPVI-RPLL
Flight info
| Callsign | CEB456 |
|---|---|
| Flight time | 0h 52m |
| Altitude | 34000 |
| Route | LAMBO1N LAMBO B472 IBAGO IBAGO7R |
| Aircraft | A320/M-SDE3FGHIRWY/LB1 |
Departure
| Time | 2026-04-26 13:35 |
|---|---|
| Airport | Iloilo International Airport (RPVI) |
Arrival
| Time | 2026-04-26 14:27 |
|---|---|
| Airport | Ninoy Aquino International Airport (RPLL) |
| Time | Latitude | Longitude | Altitude | Speed | Heading |
|---|---|---|---|---|---|
| 2026-04-26 13:25 | 10.83113 | 122.49654 | 137 ft | 0 kts | 110° |
| 2026-04-26 13:25 | 10.83114 | 122.49653 | 137 ft | 1 kts | 110° |
| 2026-04-26 13:25 | 10.83119 | 122.49637 | 140 ft | 3 kts | 110° |
| 2026-04-26 13:26 | 10.83126 | 122.49617 | 140 ft | 3 kts | 110° |
| 2026-04-26 13:26 | 10.83132 | 122.49601 | 140 ft | 3 kts | 112° |
| 2026-04-26 13:26 | 10.83141 | 122.49584 | 140 ft | 3 kts | 143° |
| 2026-04-26 13:26 | 10.83158 | 122.49576 | 140 ft | 3 kts | 184° |
| 2026-04-26 13:27 | 10.83176 | 122.49580 | 140 ft | 2 kts | 200° |
| 2026-04-26 13:27 | 10.83183 | 122.49582 | 140 ft | 0 kts | 200° |
| 2026-04-26 13:29 | 10.83168 | 122.49577 | 140 ft | 3 kts | 200° |
| 2026-04-26 13:29 | 10.83126 | 122.49560 | 140 ft | 9 kts | 200° |
| 2026-04-26 13:30 | 10.83063 | 122.49536 | 140 ft | 9 kts | 205° |
| 2026-04-26 13:30 | 10.83029 | 122.49492 | 140 ft | 7 kts | 262° |
| 2026-04-26 13:30 | 10.83041 | 122.49447 | 140 ft | 6 kts | 289° |
| 2026-04-26 13:30 | 10.83053 | 122.49413 | 140 ft | 4 kts | 289° |
| 2026-04-26 13:31 | 10.83064 | 122.49383 | 140 ft | 5 kts | 290° |
| 2026-04-26 13:31 | 10.83077 | 122.49345 | 141 ft | 7 kts | 290° |
| 2026-04-26 13:31 | 10.83089 | 122.49278 | 141 ft | 15 kts | 256° |
| 2026-04-26 13:31 | 10.83005 | 122.49223 | 141 ft | 15 kts | 199° |
| 2026-04-26 13:32 | 10.82877 | 122.49176 | 141 ft | 24 kts | 202° |
| 2026-04-26 13:32 | 10.82702 | 122.49111 | 140 ft | 28 kts | 199° |
| 2026-04-26 13:32 | 10.82518 | 122.49043 | 142 ft | 28 kts | 200° |
| 2026-04-26 13:32 | 10.82373 | 122.48991 | 143 ft | 19 kts | 199° |
| 2026-04-26 13:33 | 10.82308 | 122.48988 | 143 ft | 8 kts | 166° |
| 2026-04-26 13:33 | 10.82275 | 122.48991 | 143 ft | 7 kts | 190° |
| 2026-04-26 13:33 | 10.82255 | 122.48958 | 143 ft | 3 kts | 297° |
| 2026-04-26 13:33 | 10.82271 | 122.48952 | 142 ft | 3 kts | 355° |
| 2026-04-26 13:34 | 10.82283 | 122.48957 | 144 ft | 2 kts | 19° |
| 2026-04-26 13:34 | 10.82338 | 122.48977 | 143 ft | 28 kts | 20° |
| 2026-04-26 13:34 | 10.82763 | 122.49134 | 141 ft | 98 kts | 19° |
| 2026-04-26 13:34 | 10.83268 | 122.49322 | 142 ft | 134 kts | 20° |
| 2026-04-26 13:35 | 10.84559 | 122.49794 | 694 ft | 152 kts | 19° |
| 2026-04-26 13:35 | 10.85542 | 122.50159 | 1370 ft | 150 kts | 21° |
| 2026-04-26 13:35 | 10.86524 | 122.50525 | 2060 ft | 154 kts | 23° |
| 2026-04-26 13:35 | 10.87600 | 122.50928 | 2455 ft | 176 kts | 23° |
| 2026-04-26 13:36 | 10.88822 | 122.51385 | 2741 ft | 198 kts | 23° |
| 2026-04-26 13:36 | 10.90182 | 122.51891 | 3103 ft | 219 kts | 23° |
| 2026-04-26 13:36 | 10.91688 | 122.52449 | 3509 ft | 242 kts | 22° |
| 2026-04-26 13:36 | 10.93411 | 122.52708 | 4115 ft | 263 kts | 354° |
| 2026-04-26 13:37 | 10.95138 | 122.51982 | 4951 ft | 275 kts | 330° |
| 2026-04-26 13:37 | 10.96678 | 122.50787 | 5807 ft | 281 kts | 322° |
| 2026-04-26 13:37 | 10.98146 | 122.49444 | 6660 ft | 286 kts | 320° |
| 2026-04-26 13:37 | 10.99630 | 122.48076 | 7455 ft | 290 kts | 321° |
| 2026-04-26 13:38 | 11.01164 | 122.46730 | 8252 ft | 293 kts | 323° |
| 2026-04-26 13:38 | 11.02737 | 122.45424 | 9038 ft | 296 kts | 324° |
| 2026-04-26 13:38 | 11.04372 | 122.44125 | 9835 ft | 299 kts | 324° |
| 2026-04-26 13:38 | 11.06044 | 122.42832 | 10558 ft | 303 kts | 325° |
| 2026-04-26 13:39 | 11.07771 | 122.41516 | 10843 ft | 323 kts | 325° |
| 2026-04-26 13:39 | 11.09646 | 122.40100 | 11005 ft | 346 kts | 325° |
| 2026-04-26 13:39 | 11.11632 | 122.38597 | 11343 ft | 361 kts | 325° |
| 2026-04-26 13:39 | 11.13640 | 122.37066 | 11943 ft | 366 kts | 324° |
| 2026-04-26 13:40 | 11.15724 | 122.35511 | 12548 ft | 370 kts | 329° |
| 2026-04-26 13:40 | 11.18018 | 122.34304 | 13136 ft | 372 kts | 338° |
| 2026-04-26 13:40 | 11.20397 | 122.33276 | 13759 ft | 376 kts | 338° |
| 2026-04-26 13:40 | 11.22829 | 122.32225 | 14314 ft | 379 kts | 339° |
| 2026-04-26 13:41 | 11.25256 | 122.31178 | 14848 ft | 382 kts | 338° |
| 2026-04-26 13:41 | 11.27700 | 122.30121 | 15373 ft | 386 kts | 338° |
| 2026-04-26 13:41 | 11.30194 | 122.29040 | 15923 ft | 388 kts | 338° |
| 2026-04-26 13:41 | 11.32669 | 122.27968 | 16436 ft | 391 kts | 338° |
| 2026-04-26 13:42 | 11.35198 | 122.26874 | 16960 ft | 394 kts | 338° |
| 2026-04-26 13:42 | 11.37714 | 122.25785 | 17456 ft | 397 kts | 338° |
| 2026-04-26 13:42 | 11.40269 | 122.24678 | 17990 ft | 400 kts | 338° |
| 2026-04-26 13:42 | 11.42847 | 122.23561 | 18467 ft | 402 kts | 338° |
| 2026-04-26 13:43 | 11.45404 | 122.22452 | 18895 ft | 405 kts | 338° |
| 2026-04-26 13:43 | 11.48012 | 122.21318 | 19326 ft | 407 kts | 338° |
| 2026-04-26 13:43 | 11.50641 | 122.20176 | 19764 ft | 410 kts | 337° |
| 2026-04-26 13:43 | 11.53240 | 122.19047 | 20196 ft | 412 kts | 337° |
| 2026-04-26 13:44 | 11.55907 | 122.17888 | 20626 ft | 414 kts | 337° |
| 2026-04-26 13:44 | 11.58538 | 122.16746 | 21036 ft | 417 kts | 337° |
| 2026-04-26 13:44 | 11.61221 | 122.15583 | 21446 ft | 419 kts | 337° |
| 2026-04-26 13:44 | 11.63923 | 122.14413 | 21851 ft | 422 kts | 336° |
| 2026-04-26 13:45 | 11.66636 | 122.13236 | 22257 ft | 424 kts | 336° |
| 2026-04-26 13:45 | 11.69340 | 122.12060 | 22660 ft | 426 kts | 336° |
| 2026-04-26 13:45 | 11.72080 | 122.10867 | 23062 ft | 429 kts | 336° |
| 2026-04-26 13:45 | 11.74820 | 122.09676 | 23444 ft | 431 kts | 336° |
| 2026-04-26 13:46 | 11.77606 | 122.08466 | 23768 ft | 434 kts | 336° |
| 2026-04-26 13:46 | 11.80392 | 122.07256 | 24077 ft | 436 kts | 335° |
| 2026-04-26 13:46 | 11.83190 | 122.06039 | 24383 ft | 438 kts | 335° |
| 2026-04-26 13:46 | 11.85999 | 122.04814 | 24681 ft | 440 kts | 335° |
| 2026-04-26 13:47 | 11.88825 | 122.03580 | 24979 ft | 443 kts | 335° |
| 2026-04-26 13:47 | 11.91665 | 122.02341 | 25270 ft | 445 kts | 335° |
| 2026-04-26 13:47 | 11.94518 | 122.01100 | 25555 ft | 447 kts | 335° |
| 2026-04-26 13:47 | 11.97365 | 121.99863 | 25840 ft | 449 kts | 335° |
| 2026-04-26 13:48 | 12.00265 | 121.98601 | 26122 ft | 452 kts | 335° |
| 2026-04-26 13:48 | 12.03170 | 121.97334 | 26409 ft | 454 kts | 335° |
| 2026-04-26 13:48 | 12.06053 | 121.96074 | 26690 ft | 456 kts | 335° |
| 2026-04-26 13:48 | 12.08981 | 121.94794 | 26975 ft | 459 kts | 335° |
| 2026-04-26 13:49 | 12.11939 | 121.93505 | 27258 ft | 461 kts | 335° |
| 2026-04-26 13:49 | 12.14873 | 121.92226 | 27534 ft | 463 kts | 335° |
| 2026-04-26 13:49 | 12.17861 | 121.90922 | 27801 ft | 465 kts | 335° |
| 2026-04-26 13:49 | 12.20838 | 121.89627 | 28060 ft | 467 kts | 335° |
| 2026-04-26 13:50 | 12.23843 | 121.88320 | 28317 ft | 469 kts | 335° |
| 2026-04-26 13:50 | 12.26838 | 121.87012 | 28568 ft | 472 kts | 335° |
| 2026-04-26 13:50 | 12.29876 | 121.85686 | 28815 ft | 474 kts | 335° |
| 2026-04-26 13:50 | 12.32885 | 121.84371 | 29058 ft | 476 kts | 335° |
| 2026-04-26 13:51 | 12.35919 | 121.83044 | 29296 ft | 478 kts | 335° |
| 2026-04-26 13:51 | 12.38994 | 121.81699 | 29527 ft | 480 kts | 335° |
| 2026-04-26 13:51 | 12.42039 | 121.80367 | 29800 ft | 481 kts | 335° |
| 2026-04-26 13:51 | 12.45122 | 121.79020 | 30130 ft | 480 kts | 335° |
| 2026-04-26 13:52 | 12.48180 | 121.77685 | 30428 ft | 480 kts | 335° |
| 2026-04-26 13:52 | 12.51253 | 121.76341 | 30713 ft | 480 kts | 335° |
| 2026-04-26 13:52 | 12.54340 | 121.74988 | 30998 ft | 479 kts | 335° |
| 2026-04-26 13:52 | 12.57373 | 121.73656 | 31289 ft | 479 kts | 335° |
| 2026-04-26 13:53 | 12.60454 | 121.72304 | 31591 ft | 479 kts | 335° |
| 2026-04-26 13:53 | 12.63496 | 121.70971 | 31886 ft | 479 kts | 335° |
| 2026-04-26 13:53 | 12.66553 | 121.69628 | 32186 ft | 478 kts | 334° |
| 2026-04-26 13:53 | 12.69615 | 121.68281 | 32490 ft | 478 kts | 334° |
| 2026-04-26 13:54 | 12.72681 | 121.66935 | 32801 ft | 478 kts | 334° |
| 2026-04-26 13:54 | 12.75740 | 121.65595 | 33114 ft | 477 kts | 334° |
| 2026-04-26 13:54 | 12.78791 | 121.64257 | 33422 ft | 477 kts | 334° |
| 2026-04-26 13:55 | 12.84895 | 121.61577 | 33916 ft | 477 kts | 334° |
| 2026-04-26 13:55 | 12.86916 | 121.60688 | 33942 ft | 477 kts | 334° |
| 2026-04-26 13:56 | 12.97053 | 121.56230 | 33841 ft | 475 kts | 334° |
| 2026-04-26 13:56 | 13.00089 | 121.54894 | 33568 ft | 476 kts | 334° |
| 2026-04-26 13:56 | 13.03133 | 121.53554 | 33315 ft | 476 kts | 334° |
| 2026-04-26 13:56 | 13.06177 | 121.52215 | 33064 ft | 477 kts | 334° |
| 2026-04-26 13:57 | 13.09225 | 121.50870 | 32813 ft | 477 kts | 334° |
| 2026-04-26 13:57 | 13.12274 | 121.49520 | 32561 ft | 477 kts | 334° |
| 2026-04-26 13:57 | 13.15328 | 121.48170 | 32322 ft | 477 kts | 334° |
| 2026-04-26 13:57 | 13.18378 | 121.46826 | 32079 ft | 477 kts | 334° |
| 2026-04-26 13:58 | 13.21429 | 121.45483 | 31838 ft | 477 kts | 334° |
| 2026-04-26 13:58 | 13.24444 | 121.44153 | 31599 ft | 478 kts | 334° |
| 2026-04-26 13:58 | 13.27513 | 121.42795 | 31367 ft | 478 kts | 334° |
| 2026-04-26 13:58 | 13.30572 | 121.41443 | 31132 ft | 478 kts | 334° |
| 2026-04-26 13:59 | 13.33595 | 121.40110 | 30903 ft | 478 kts | 334° |
| 2026-04-26 13:59 | 13.36674 | 121.38753 | 30674 ft | 479 kts | 334° |
| 2026-04-26 13:59 | 13.39751 | 121.37393 | 30446 ft | 479 kts | 334° |
| 2026-04-26 14:00 | 13.48884 | 121.33372 | 29724 ft | 470 kts | 334° |
| 2026-04-26 14:00 | 13.51812 | 121.32004 | 29454 ft | 455 kts | 329° |
| 2026-04-26 14:00 | 13.53623 | 121.30884 | 29268 ft | 444 kts | 323° |
| 2026-04-26 14:01 | 13.56695 | 121.28239 | 28931 ft | 426 kts | 311° |
| 2026-04-26 14:01 | 13.58633 | 121.25996 | 28671 ft | 414 kts | 309° |
| 2026-04-26 14:01 | 13.60507 | 121.23793 | 28416 ft | 404 kts | 309° |
| 2026-04-26 14:01 | 13.62344 | 121.21650 | 28163 ft | 395 kts | 309° |
| 2026-04-26 14:02 | 13.64309 | 121.19656 | 27916 ft | 408 kts | 322° |
| 2026-04-26 14:02 | 13.66837 | 121.18297 | 27662 ft | 411 kts | 341° |
| 2026-04-26 14:02 | 13.69571 | 121.17820 | 27388 ft | 401 kts | 355° |
| 2026-04-26 14:02 | 13.72338 | 121.17746 | 27142 ft | 395 kts | 357° |
| 2026-04-26 14:03 | 13.75077 | 121.17704 | 26904 ft | 392 kts | 357° |
| 2026-04-26 14:03 | 13.77801 | 121.17665 | 26662 ft | 390 kts | 357° |
| 2026-04-26 14:03 | 13.80507 | 121.17627 | 26427 ft | 388 kts | 357° |
| 2026-04-26 14:03 | 13.83195 | 121.17589 | 26200 ft | 385 kts | 357° |
| 2026-04-26 14:04 | 13.85854 | 121.17551 | 25969 ft | 383 kts | 357° |
| 2026-04-26 14:04 | 13.88516 | 121.17513 | 25737 ft | 381 kts | 357° |
| 2026-04-26 14:04 | 13.91156 | 121.17464 | 25511 ft | 378 kts | 354° |
| 2026-04-26 14:04 | 13.93691 | 121.16895 | 25281 ft | 371 kts | 335° |
| 2026-04-26 14:05 | 13.95934 | 121.15625 | 25057 ft | 366 kts | 318° |
| 2026-04-26 14:05 | 13.97623 | 121.13699 | 24831 ft | 362 kts | 305° |
| 2026-04-26 14:05 | 13.99131 | 121.11609 | 24605 ft | 362 kts | 309° |
| 2026-04-26 14:05 | 14.00822 | 121.09719 | 24393 ft | 361 kts | 314° |
| 2026-04-26 14:06 | 14.02665 | 121.07966 | 24173 ft | 360 kts | 317° |
| 2026-04-26 14:06 | 14.04562 | 121.06293 | 23954 ft | 358 kts | 319° |
| 2026-04-26 14:06 | 14.06464 | 121.04640 | 23738 ft | 356 kts | 318° |
| 2026-04-26 14:06 | 14.08349 | 121.02970 | 23524 ft | 355 kts | 318° |
| 2026-04-26 14:07 | 14.10197 | 121.01293 | 23257 ft | 352 kts | 317° |
| 2026-04-26 14:07 | 14.11962 | 120.99651 | 22988 ft | 338 kts | 316° |
| 2026-04-26 14:07 | 14.13650 | 120.98056 | 22732 ft | 321 kts | 316° |
| 2026-04-26 14:07 | 14.15264 | 120.96521 | 22486 ft | 313 kts | 316° |
| 2026-04-26 14:08 | 14.16861 | 120.95021 | 22227 ft | 309 kts | 320° |
| 2026-04-26 14:08 | 14.18641 | 120.93794 | 21980 ft | 307 kts | 328° |
| 2026-04-26 14:08 | 14.20482 | 120.92712 | 21734 ft | 302 kts | 328° |
| 2026-04-26 14:08 | 14.22280 | 120.91653 | 21596 ft | 293 kts | 328° |
| 2026-04-26 14:09 | 14.24012 | 120.90626 | 21408 ft | 281 kts | 326° |
| 2026-04-26 14:09 | 14.25409 | 120.89293 | 21020 ft | 271 kts | 300° |
| 2026-04-26 14:09 | 14.26057 | 120.87506 | 20578 ft | 268 kts | 274° |
| 2026-04-26 14:09 | 14.25850 | 120.85612 | 20271 ft | 268 kts | 250° |
| 2026-04-26 14:10 | 14.24994 | 120.83905 | 19970 ft | 269 kts | 241° |
| 2026-04-26 14:10 | 14.24059 | 120.82228 | 19689 ft | 269 kts | 241° |
| 2026-04-26 14:10 | 14.23127 | 120.80560 | 19402 ft | 268 kts | 241° |
| 2026-04-26 14:10 | 14.22200 | 120.78901 | 19063 ft | 266 kts | 241° |
| 2026-04-26 14:11 | 14.20371 | 120.75618 | 18275 ft | 264 kts | 240° |
| 2026-04-26 14:11 | 14.19451 | 120.73985 | 17844 ft | 263 kts | 240° |
| 2026-04-26 14:11 | 14.18536 | 120.72362 | 17413 ft | 261 kts | 240° |
| 2026-04-26 14:12 | 14.17628 | 120.70745 | 16990 ft | 260 kts | 240° |
| 2026-04-26 14:12 | 14.16726 | 120.69136 | 16574 ft | 259 kts | 240° |
| 2026-04-26 14:12 | 14.15831 | 120.67537 | 16158 ft | 258 kts | 240° |
| 2026-04-26 14:12 | 14.14937 | 120.65934 | 15751 ft | 257 kts | 240° |
| 2026-04-26 14:13 | 14.13161 | 120.62739 | 14952 ft | 256 kts | 240° |
| 2026-04-26 14:13 | 14.12291 | 120.61165 | 14574 ft | 255 kts | 240° |
| 2026-04-26 14:13 | 14.11417 | 120.59579 | 14186 ft | 254 kts | 240° |
| 2026-04-26 14:14 | 14.10544 | 120.57993 | 13806 ft | 254 kts | 240° |
| 2026-04-26 14:14 | 14.09676 | 120.56412 | 13390 ft | 253 kts | 240° |
| 2026-04-26 14:14 | 14.08820 | 120.54831 | 12968 ft | 252 kts | 243° |
| 2026-04-26 14:14 | 14.08415 | 120.53099 | 12563 ft | 250 kts | 274° |
| 2026-04-26 14:15 | 14.08906 | 120.51411 | 12149 ft | 248 kts | 305° |
| 2026-04-26 14:15 | 14.10153 | 120.50230 | 11733 ft | 244 kts | 336° |
| 2026-04-26 14:15 | 14.11792 | 120.49894 | 11317 ft | 239 kts | 8° |
| 2026-04-26 14:15 | 14.13304 | 120.50477 | 10930 ft | 235 kts | 39° |
| 2026-04-26 14:16 | 14.14522 | 120.51591 | 10526 ft | 234 kts | 46° |
| 2026-04-26 14:16 | 14.15658 | 120.52776 | 10154 ft | 234 kts | 47° |
| 2026-04-26 14:16 | 14.16787 | 120.53973 | 9793 ft | 232 kts | 47° |
| 2026-04-26 14:16 | 14.17909 | 120.55160 | 9416 ft | 231 kts | 47° |
| 2026-04-26 14:17 | 14.19028 | 120.56342 | 9036 ft | 229 kts | 47° |
| 2026-04-26 14:17 | 14.20144 | 120.57521 | 8670 ft | 228 kts | 47° |
| 2026-04-26 14:17 | 14.21251 | 120.58687 | 8287 ft | 226 kts | 47° |
| 2026-04-26 14:17 | 14.22338 | 120.59834 | 7931 ft | 225 kts | 47° |
| 2026-04-26 14:18 | 14.23429 | 120.60982 | 7584 ft | 223 kts | 47° |
| 2026-04-26 14:18 | 14.24514 | 120.62122 | 7209 ft | 222 kts | 47° |
| 2026-04-26 14:18 | 14.25593 | 120.63254 | 6866 ft | 220 kts | 47° |
| 2026-04-26 14:18 | 14.26667 | 120.64375 | 6518 ft | 220 kts | 47° |
| 2026-04-26 14:19 | 14.27741 | 120.65493 | 6199 ft | 218 kts | 47° |
| 2026-04-26 14:19 | 14.28799 | 120.66595 | 5847 ft | 216 kts | 47° |
| 2026-04-26 14:19 | 14.29857 | 120.67696 | 5470 ft | 215 kts | 47° |
| 2026-04-26 14:19 | 14.30900 | 120.68776 | 5125 ft | 213 kts | 47° |
| 2026-04-26 14:20 | 14.31950 | 120.69866 | 4773 ft | 212 kts | 47° |
| 2026-04-26 14:20 | 14.32987 | 120.70940 | 4421 ft | 210 kts | 47° |
| 2026-04-26 14:20 | 14.33998 | 120.72018 | 4042 ft | 208 kts | 52° |
| 2026-04-26 14:20 | 14.34831 | 120.73223 | 3800 ft | 205 kts | 60° |
| 2026-04-26 14:21 | 14.35564 | 120.74478 | 3803 ft | 206 kts | 61° |
| 2026-04-26 14:21 | 14.36274 | 120.75743 | 3801 ft | 206 kts | 62° |
| 2026-04-26 14:21 | 14.36991 | 120.77027 | 3801 ft | 206 kts | 62° |
| 2026-04-26 14:21 | 14.37706 | 120.78311 | 3760 ft | 209 kts | 62° |
| 2026-04-26 14:22 | 14.38420 | 120.79591 | 3715 ft | 201 kts | 62° |
| 2026-04-26 14:22 | 14.39101 | 120.80813 | 3708 ft | 194 kts | 62° |
| 2026-04-26 14:22 | 14.39773 | 120.82018 | 3696 ft | 194 kts | 62° |
| 2026-04-26 14:22 | 14.40443 | 120.83223 | 3527 ft | 193 kts | 62° |
| 2026-04-26 14:23 | 14.41111 | 120.84421 | 3331 ft | 190 kts | 62° |
| 2026-04-26 14:23 | 14.41763 | 120.85591 | 3085 ft | 187 kts | 62° |
| 2026-04-26 14:23 | 14.42407 | 120.86749 | 2836 ft | 185 kts | 62° |
| 2026-04-26 14:23 | 14.43043 | 120.87891 | 2602 ft | 181 kts | 62° |
| 2026-04-26 14:24 | 14.43664 | 120.89006 | 2376 ft | 178 kts | 62° |
| 2026-04-26 14:24 | 14.44271 | 120.90096 | 2142 ft | 171 kts | 61° |
| 2026-04-26 14:24 | 14.44838 | 120.91115 | 1947 ft | 155 kts | 62° |
| 2026-04-26 14:24 | 14.45353 | 120.92039 | 1749 ft | 143 kts | 62° |
| 2026-04-26 14:25 | 14.45838 | 120.92912 | 1568 ft | 138 kts | 62° |
| 2026-04-26 14:25 | 14.46311 | 120.93763 | 1388 ft | 136 kts | 62° |
| 2026-04-26 14:25 | 14.46774 | 120.94595 | 1224 ft | 135 kts | 63° |
| 2026-04-26 14:25 | 14.47246 | 120.95445 | 1052 ft | 138 kts | 60° |
| 2026-04-26 14:26 | 14.47725 | 120.96306 | 864 ft | 139 kts | 62° |
| 2026-04-26 14:26 | 14.48207 | 120.97166 | 677 ft | 138 kts | 62° |
| 2026-04-26 14:26 | 14.48688 | 120.98026 | 512 ft | 138 kts | 60° |
| 2026-04-26 14:26 | 14.49167 | 120.98894 | 379 ft | 138 kts | 63° |
| 2026-04-26 14:27 | 14.49642 | 120.99744 | 183 ft | 136 kts | 64° |
| 2026-04-26 14:27 | 14.50108 | 121.00585 | 66 ft | 127 kts | 63° |
| 2026-04-26 14:27 | 14.50466 | 121.01234 | 67 ft | 79 kts | 60° |
| 2026-04-26 14:27 | 14.50662 | 121.01587 | 65 ft | 41 kts | 60° |
| 2026-04-26 14:28 | 14.50771 | 121.01722 | 63 ft | 15 kts | 39° |
| 2026-04-26 14:28 | 14.50817 | 121.01759 | 60 ft | 8 kts | 38° |
| 2026-04-26 14:28 | 14.50853 | 121.01785 | 66 ft | 3 kts | 24° |
| 2026-04-26 14:28 | 14.50871 | 121.01787 | 66 ft | 3 kts | 359° |
| 2026-04-26 14:29 | 14.50885 | 121.01784 | 59 ft | 4 kts | 342° |
| 2026-04-26 14:29 | 14.50920 | 121.01756 | 67 ft | 10 kts | 318° |
| 2026-04-26 14:29 | 14.50977 | 121.01696 | 63 ft | 12 kts | 315° |
| 2026-04-26 14:29 | 14.51032 | 121.01640 | 64 ft | 11 kts | 315° |
| 2026-04-26 14:30 | 14.51084 | 121.01587 | 66 ft | 10 kts | 315° |
| 2026-04-26 14:30 | 14.51146 | 121.01522 | 63 ft | 9 kts | 315° |
| 2026-04-26 14:30 | 14.51175 | 121.01492 | 62 ft | 8 kts | 315° |
| 2026-04-26 14:30 | 14.51202 | 121.01465 | 61 ft | 4 kts | 315° |
| 2026-04-26 14:31 | 14.51218 | 121.01449 | 65 ft | 3 kts | 315° |
| 2026-04-26 14:31 | 14.51233 | 121.01436 | 64 ft | 6 kts | 326° |
| 2026-04-26 14:31 | 14.51298 | 121.01449 | 67 ft | 12 kts | 45° |
| 2026-04-26 14:31 | 14.51348 | 121.01510 | 66 ft | 11 kts | 50° |
| 2026-04-26 14:32 | 14.51396 | 121.01560 | 61 ft | 9 kts | 45° |
| 2026-04-26 14:32 | 14.51443 | 121.01588 | 69 ft | 7 kts | 354° |
| 2026-04-26 14:32 | 14.51481 | 121.01564 | 64 ft | 6 kts | 314° |
| 2026-04-26 14:32 | 14.51509 | 121.01535 | 66 ft | 5 kts | 314° |
| 2026-04-26 14:33 | 14.51535 | 121.01508 | 66 ft | 5 kts | 314° |
| 2026-04-26 14:33 | 14.51558 | 121.01484 | 62 ft | 5 kts | 315° |
| 2026-04-26 14:33 | 14.51586 | 121.01455 | 64 ft | 8 kts | 315° |
| 2026-04-26 14:33 | 14.51636 | 121.01405 | 63 ft | 11 kts | 315° |
| 2026-04-26 14:34 | 14.51689 | 121.01350 | 59 ft | 11 kts | 315° |
| 2026-04-26 14:34 | 14.51746 | 121.01291 | 64 ft | 12 kts | 315° |
| 2026-04-26 14:34 | 14.51784 | 121.01253 | 64 ft | 11 kts | 315° |
| 2026-04-26 14:34 | 14.51820 | 121.01215 | 66 ft | 11 kts | 315° |